Main page
METAR-TAF:

METAR-TAF

Airports :

Karpathos Island National Airport

Karpathos, Greece

latitude: 35-24-51N, longitude: 027-08-54E, elevation: 6 m

Current weather observation

The report was made 28 minutes ago, at 21:50 UTC
Wind 6 kt from the Northwest
Temperature 11°C
Humidity 82%
Pressure 1019 hPa

METAR: LGKP 182150Z AUTO 31006KT //// // ////// 11/08 Q1019 RE//

Time: 00:18 (22:18 UTC)

Forecast

The report was made 2 hours and 18 minutes ago, at 20:00 UTC
Forecast valid from 18 at 21 UTC to 19 at 06 UTC
Wind 10 kt from the Northwest
Visibility 10 km or more
Scattered clouds at a height of 1800 ft

TAF: LGKP 182000Z 1821/1906 31010KT 9999 SCT018

Weather observations and forecasts of more than 4000 airports (METAR and TAF reports).

The available stations are represented by yellow and red dots on the map.

Hover mouse over dot to see the name of the station.

Then click to see weather observations and forecasts.

To change the map : click on the green buttons with a black cross to zoom in, on the green button with a dash to zoom out, or on the green arrows for adjacent maps.


METAR-TAF: